Time;durP1;ratioP1;P1;durP2;ratioP2;P2;SDS_P1;SDS_P2;PMS_P1;PMS_P2;Temp;Humidity;BMP_temperature;BMP_pressure;BME280_temperature;BME280_humidity;BME280_pressure;Samples;Min_cycle;Max_cycle;Signal;HPM_P1;HPM_P2
2023/07/29 00:01:23;;;;;;;15.13;7.68;;;;;;;;;;5019562;28;20474;-85
2023/07/29 00:03:49;;;;;;;8.52;7.03;;;;;;;;;;5053610;28;20395;-84
2023/07/29 00:06:15;;;;;;;9.25;7.05;;;;;;;;;;5036254;28;20045;-86
2023/07/29 00:08:41;;;;;;;11.02;7.97;;;;;;;;;;5053738;28;20037;-86
2023/07/29 00:11:07;;;;;;;11.25;7.32;;;;;;;;;;5035594;28;20044;-85
2023/07/29 00:13:34;;;;;;;10.80;7.68;;;;;;;;;;5053414;28;20083;-85
2023/07/29 00:16:00;;;;;;;9.48;7.20;;;;;;;;;;5035482;28;20128;-84
2023/07/29 00:18:27;;;;;;;18.80;8.27;;;;;;;;;;5035685;28;20053;-85
2023/07/29 00:20:53;;;;;;;10.77;8.20;;;;;;;;;;5002734;28;20052;-86
2023/07/29 00:23:19;;;;;;;9.13;7.43;;;;;;;;;;5018868;28;20136;-85
2023/07/29 00:25:45;;;;;;;10.65;8.23;;;;;;;;;;5002428;28;20044;-85
2023/07/29 00:28:12;;;;;;;10.60;8.73;;;18.90;61.00;;;;;;5035521;28;20394;-85
2023/07/29 00:30:38;;;;;;;12.13;8.70;;;;;;;;;;5051886;28;20482;-84
2023/07/29 00:33:04;;;;;;;13.57;8.52;;;;;;;;;;5034900;28;20102;-85
2023/07/29 00:35:30;;;;;;;9.98;8.25;;;;;;;;;;5035236;28;20233;-84
2023/07/29 00:37:56;;;;;;;10.95;8.43;;;;;;;;;;5019058;28;20405;-85
2023/07/29 00:40:23;;;;;;;12.05;8.60;;;18.80;60.80;;;;;;5002223;28;20053;-86
2023/07/29 00:42:50;;;;;;;12.63;8.65;;;18.70;65.30;;;;;;5018363;28;20049;-84
2023/07/29 00:45:16;;;;;;;10.35;8.10;;;;;;;;;;5002304;28;20084;-86
2023/07/29 00:47:43;;;;;;;10.18;7.80;;;18.70;61.60;;;;;;5034974;28;20037;-85
2023/07/29 00:50:14;;;;;;;10.35;8.75;;;18.90;66.10;;;;;;5002278;28;20052;-84
2023/07/29 00:52:40;;;;;;;10.45;8.77;;;;;;;;;;5051715;28;20120;-86
2023/07/29 00:55:07;;;;;;;10.75;8.55;;;18.70;62.80;;;;;;5002393;28;20059;-85
2023/07/29 00:57:35;;;;;;;10.02;8.93;;;;;;;;;;5018994;28;20124;-85
2023/07/29 01:00:02;;;;;;;12.02;9.15;;;;;;;;;;5035140;28;20447;-85
2023/07/29 01:02:29;;;;;;;10.80;8.43;;;;;;;;;;5034490;28;20045;-84
2023/07/29 01:04:57;;;;;;;9.20;8.18;;;18.60;63.20;;;;;;5034517;28;20063;-85
2023/07/29 01:07:45;;;;;;;12.30;9.07;;;18.60;61.70;;;;;;5018079;28;20128;-86
2023/07/29 01:10:30;;;;;;;11.70;8.45;;;18.90;63.90;;;;;;5051170;28;20052;-85
2023/07/29 01:13:20;;;;;;;13.85;8.65;;;18.70;67.00;;;;;;5018233;28;20049;-84
2023/07/29 01:15:54;;;;;;;13.77;10.18;;;18.70;62.30;;;;;;5018325;28;20049;-85
2023/07/29 01:18:26;;;;;;;12.82;8.80;;;18.60;62.40;;;;;;5018135;28;20088;-85
2023/07/29 01:21:03;;;;;;;14.18;9.20;;;18.60;63.00;;;;;;5034492;28;20142;-86
2023/07/29 01:23:36;;;;;;;12.70;8.35;;;18.60;64.60;;;;;;5050855;28;20052;-84
2023/07/29 01:26:03;;;;;;;11.77;9.23;;;18.50;63.90;;;;;;5002501;28;20066;-85
2023/07/29 01:28:29;;;;;;;10.20;8.77;;;;;;;;;;5018120;28;20249;-86
2023/07/29 01:31:13;;;;;;;11.48;9.00;;;18.50;65.20;;;;;;5002039;28;20067;-85
2023/07/29 01:34:29;;;;;;;12.70;8.70;;;18.60;68.10;;;;;;5050579;28;20537;-85
2023/07/29 01:36:59;;;;;;;9.90;8.07;;;18.60;64.40;;;;;;5028708;28;20049;-85
2023/07/29 01:39:29;;;;;;;12.45;8.95;;;18.60;65.10;;;;;;5034401;28;20103;-86
2023/07/29 01:41:55;;;;;;;11.00;8.63;;;18.70;64.20;;;;;;5018058;28;20049;-86
2023/07/29 01:44:21;;;;;;;9.57;8.35;;;;;;;;;;5017467;28;20132;-84
2023/07/29 01:46:47;;;;;;;12.05;8.13;;;;;;;;;;5001469;28;20063;-87
2023/07/29 01:49:13;;;;;;;12.05;9.18;;;;;;;;;;5033793;28;20045;-86
2023/07/29 01:51:39;;;;;;;11.40;8.10;;;;;;;;;;5034321;28;20378;-84
2023/07/29 01:54:05;;;;;;;10.00;8.70;;;;;;;;;;5034419;28;20059;-86
2023/07/29 01:56:32;;;;;;;10.95;9.00;;;;;;;;;;5001268;28;20049;-86
2023/07/29 01:58:58;;;;;;;13.00;10.13;;;;;;;;;;5033838;28;20041;-87
2023/07/29 02:01:24;;;;;;;12.82;8.93;;;;;;;;;;5001360;28;20043;-86
2023/07/29 02:03:54;;;;;;;12.65;8.85;;;;;;;;;;5033775;28;20083;-85
2023/07/29 02:06:21;;;;;;;12.15;8.98;;;;;;;;;;5034121;28;20474;-87
2023/07/29 02:08:47;;;;;;;11.38;8.60;;;;;;;;;;5033887;28;20127;-85
2023/07/29 02:11:13;;;;;;;10.88;9.10;;;;;;;;;;5034000;28;20099;-87
2023/07/29 02:13:39;;;;;;;11.70;9.57;;;;;;;;;;5033970;28;20383;-85
2023/07/29 02:16:05;;;;;;;12.05;9.45;;;;;;;;;;5034041;28;20166;-83
2023/07/29 02:18:31;;;;;;;12.73;9.23;;;;;;;;;;5001033;28;20049;-86
2023/07/29 02:20:57;;;;;;;12.55;9.88;;;;;;;;;;5033721;28;20036;-87
2023/07/29 02:23:23;;;;;;;11.65;9.38;;;;;;;;;;5033709;28;20056;-85
2023/07/29 02:25:50;;;;;;;12.15;8.88;;;18.20;66.80;;;;;;5036288;28;20067;-85
2023/07/29 02:28:16;;;;;;;12.63;9.55;;;;;;;;;;5018538;28;20041;-83
2023/07/29 02:30:45;;;;;;;11.00;8.25;;;;;;;;;;5034572;28;20536;-83
2023/07/29 02:33:11;;;;;;;14.90;8.85;;;;;;;;;;5034948;28;20045;-83
2023/07/29 02:35:37;;;;;;;11.15;8.30;;;;;;;;;;5001862;28;20138;-86
2023/07/29 02:38:03;;;;;;;11.10;8.23;;;;;;;;;;5017694;28;20124;-87
2023/07/29 02:40:29;;;;;;;17.80;8.43;;;;;;;;;;5033539;28;20505;-84
2023/07/29 02:42:55;;;;;;;19.25;9.77;;;;;;;;;;5001298;28;20068;-83
2023/07/29 02:45:21;;;;;;;12.40;8.55;;;;;;;;;;5033626;28;20171;-86
2023/07/29 02:47:47;;;;;;;13.05;9.13;;;;;;;;;;5033830;28;20091;-84
2023/07/29 02:50:13;;;;;;;13.07;8.85;;;;;;;;;;5033667;28;20045;-85
2023/07/29 02:52:39;;;;;;;11.70;8.93;;;;;;;;;;5017377;28;20135;-85
2023/07/29 02:55:06;;;;;;;10.35;7.53;;;18.00;72.00;;;;;;5000897;28;20045;-84
2023/07/29 02:57:32;;;;;;;11.80;9.57;;;;;;;;;;5050409;28;20433;-85
2023/07/29 02:59:58;;;;;;;11.32;8.55;;;;;;;;;;5034669;28;20041;-86
2023/07/29 03:02:24;;;;;;;10.02;7.78;;;;;;;;;;5020357;28;20048;-85
2023/07/29 03:04:50;;;;;;;10.20;8.10;;;;;;;;;;5020637;28;20500;-87
2023/07/29 03:07:16;;;;;;;11.18;7.88;;;;;;;;;;5036871;28;20048;-85
2023/07/29 03:09:44;;;;;;;8.73;7.53;;;;;;;;;;5036958;28;20056;-85
2023/07/29 03:12:10;;;;;;;14.60;8.57;;;;;;;;;;5036621;28;20132;-86
2023/07/29 03:14:36;;;;;;;14.88;8.75;;;;;;;;;;5004375;28;20045;-85
2023/07/29 03:17:05;;;;;;;13.10;9.00;;;17.70;72.40;;;;;;5020677;28;20094;-86
2023/07/29 03:19:31;;;;;;;13.07;8.18;;;;;;;;;;5020183;28;20182;-85
2023/07/29 03:21:57;;;;;;;9.80;7.95;;;;;;;;;;5003859;28;20052;-87
2023/07/29 03:24:23;;;;;;;10.85;8.43;;;;;;;;;;5036443;28;20720;-86
2023/07/29 03:26:49;;;;;;;9.38;7.28;;;;;;;;;;5036650;28;20052;-85
2023/07/29 03:29:15;;;;;;;10.00;7.47;;;;;;;;;;5003716;28;20481;-87
2023/07/29 03:31:41;;;;;;;9.20;7.38;;;;;;;;;;5036524;28;20512;-87
2023/07/29 03:34:07;;;;;;;14.35;7.72;;;;;;;;;;5003611;28;20047;-84
2023/07/29 03:36:33;;;;;;;12.27;7.10;;;;;;;;;;5019894;28;20045;-86
2023/07/29 03:39:00;;;;;;;11.95;7.18;;;;;;;;;;5019811;28;20095;-84
2023/07/29 03:41:26;;;;;;;12.90;7.35;;;;;;;;;;5003496;28;20056;-85
2023/07/29 03:43:52;;;;;;;9.50;6.47;;;;;;;;;;5019924;28;20049;-85
2023/07/29 03:46:21;;;;;;;10.05;7.18;;;;;;;;;;5003618;28;20083;-87
2023/07/29 03:48:47;;;;;;;10.45;6.28;;;;;;;;;;5003575;28;20041;-84
2023/07/29 03:51:13;;;;;;;12.52;7.47;;;;;;;;;;5003388;28;20049;-85
2023/07/29 03:53:39;;;;;;;9.68;6.93;;;;;;;;;;5036007;28;20759;-86
2023/07/29 03:56:06;;;;;;;8.48;6.15;;;;;;;;;;5003496;28;20113;-84
2023/07/29 03:58:32;;;;;;;9.93;6.70;;;;;;;;;;5036150;28;20485;-85
2023/07/29 04:00:58;;;;;;;7.40;6.60;;;;;;;;;;5003162;28;20426;-85
2023/07/29 04:03:24;;;;;;;10.25;6.70;;;;;;;;;;5035817;28;20090;-86
2023/07/29 04:05:50;;;;;;;10.93;7.28;;;;;;;;;;5035709;28;20056;-84
2023/07/29 04:08:16;;;;;;;12.55;6.55;;;;;;;;;;5003175;28;20041;-86
2023/07/29 04:10:42;;;;;;;8.27;5.93;;;;;;;;;;5035379;28;20145;-87
2023/07/29 04:13:08;;;;;;;11.35;5.80;;;;;;;;;;5053443;28;20045;-84
2023/07/29 04:15:34;;;;;;;7.60;6.13;;;;;;;;;;5019729;28;20037;-85
2023/07/29 04:18:00;;;;;;;9.48;5.90;;;;;;;;;;5053138;28;20044;-86
2023/07/29 04:20:26;;;;;;;7.28;5.22;;;;;;;;;;5035170;28;20112;-86
2023/07/29 04:22:52;;;;;;;8.55;6.50;;;;;;;;;;5018606;28;20071;-86
2023/07/29 04:25:19;;;;;;;16.33;6.60;;;;;;;;;;5002208;28;20056;-85
2023/07/29 04:27:45;;;;;;;8.23;5.95;;;;;;;;;;5035210;28;20098;-85
2023/07/29 04:30:11;;;;;;;9.60;6.28;;;;;;;;;;5002887;28;20044;-85
2023/07/29 04:32:37;;;;;;;8.70;6.28;;;;;;;;;;5034789;28;20579;-85
2023/07/29 04:35:03;;;;;;;9.88;5.72;;;16.90;73.90;;;;;;5035153;28;20460;-85
2023/07/29 04:37:29;;;;;;;8.30;6.03;;;;;;;;;;5019019;28;20570;-85
2023/07/29 04:39:55;;;;;;;9.25;5.50;;;;;;;;;;5034794;28;20060;-85
2023/07/29 04:42:21;;;;;;;6.22;5.28;;;;;;;;;;5002383;28;20489;-85
2023/07/29 04:44:47;;;;;;;9.75;5.60;;;;;;;;;;5018367;28;20052;-84
2023/07/29 04:47:14;;;;;;;7.40;5.68;;;;;;;;;;5053001;28;20459;-85
2023/07/29 04:49:40;;;;;;;11.30;5.95;;;;;;;;;;5018614;28;20496;-85
2023/07/29 04:52:06;;;;;;;7.88;5.05;;;;;;;;;;5053051;28;20053;-84
2023/07/29 04:54:32;;;;;;;8.30;5.07;;;;;;;;;;5018331;28;20049;-84
2023/07/29 04:56:58;;;;;;;12.18;5.03;;;;;;;;;;5051153;28;20040;-84
2023/07/29 04:59:25;;;;;;;7.97;5.20;;;;;;;;;;5002265;28;20048;-84
2023/07/29 05:01:51;;;;;;;8.30;5.53;;;;;;;;;;5001671;28;20477;-85
2023/07/29 05:04:17;;;;;;;7.57;5.05;;;;;;;;;;5034613;28;20616;-86
2023/07/29 05:06:43;;;;;;;8.18;5.35;;;;;;;;;;5018241;28;20150;-85
2023/07/29 05:09:19;;;;;;;8.38;5.25;;;17.30;70.10;;;;;;5002021;28;20108;-86
2023/07/29 05:11:46;;;;;;;9.45;5.28;;;17.20;71.80;;;;;;5001840;28;20586;-85
2023/07/29 05:14:17;;;;;;;6.93;4.35;;;17.20;73.00;;;;;;5018244;28;20489;-84
2023/07/29 05:16:43;;;;;;;6.65;4.85;;;;;;;;;;5018062;28;20048;-86
2023/07/29 05:19:09;;;;;;;5.50;4.88;;;;;;;;;;5018285;28;20048;-85
2023/07/29 05:21:35;;;;;;;10.73;5.63;;;;;;;;;;5034088;28;20037;-86
2023/07/29 05:24:01;;;;;;;6.40;4.38;;;;;;;;;;5033825;28;20056;-85
2023/07/29 05:26:27;;;;;;;14.85;5.07;;;;;;;;;;5001569;28;20053;-84
2023/07/29 05:28:53;;;;;;;10.15;4.50;;;;;;;;;;5001513;28;20041;-84
2023/07/29 05:31:19;;;;;;;9.57;4.80;;;;;;;;;;5034049;28;20060;-86
2023/07/29 05:33:45;;;;;;;5.55;4.10;;;;;;;;;;5034544;28;20045;-85
2023/07/29 05:36:12;;;;;;;4.63;3.78;;;;;;;;;;5034692;28;20402;-86
2023/07/29 05:38:38;;;;;;;6.50;4.07;;;;;;;;;;5034164;28;20059;-84
2023/07/29 05:41:03;;;;;;;7.93;4.50;;;17.50;75.50;;;;;;5033732;28;20049;-84
2023/07/29 05:43:29;;;;;;;6.63;4.32;;;;;;;;;;5017981;28;20060;-84
2023/07/29 05:45:55;;;;;;;6.40;4.25;;;;;;;;;;5001292;28;20044;-84
2023/07/29 05:48:21;;;;;;;5.47;4.20;;;;;;;;;;5001524;28;20049;-84
2023/07/29 05:50:48;;;;;;;5.97;4.03;;;;;;;;;;5034143;28;20048;-84
2023/07/29 05:53:15;;;;;;;8.15;4.88;;;;;;;;;;5033848;28;20067;-86
2023/07/29 05:55:41;;;;;;;5.32;3.67;;;;;;;;;;5034234;28;20401;-85
2023/07/29 05:58:07;;;;;;;6.45;4.45;;;;;;;;;;5034095;28;20565;-85
2023/07/29 06:00:33;;;;;;;7.53;4.40;;;;;;;;;;5034188;28;20053;-86
2023/07/29 06:02:59;;;;;;;5.85;4.50;;;;;;;;;;5034092;28;20401;-85
2023/07/29 06:05:25;;;;;;;8.40;3.90;;;;;;;;;;5033733;28;20049;-86
2023/07/29 06:07:52;;;;;;;7.30;3.83;;;;;;;;;;5001628;28;20273;-86
2023/07/29 06:10:18;;;;;;;5.93;3.60;;;;;;;;;;5001494;28;20482;-87
2023/07/29 06:12:44;;;;;;;6.65;4.68;;;;;;;;;;5017507;28;20052;-85
2023/07/29 06:15:11;;;;;;;4.38;3.17;;;;;;;;;;5033768;28;20501;-86
2023/07/29 06:17:37;;;;;;;7.70;4.05;;;;;;;;;;5033916;28;20052;-85
2023/07/29 06:20:04;;;;;;;6.70;3.67;;;;;;;;;;5001409;28;20080;-87
2023/07/29 06:22:30;;;;;;;9.18;4.68;;;;;;;;;;5001223;28;20044;-89
2023/07/29 06:24:56;;;;;;;6.05;3.92;;;;;;;;;;5034031;28;20444;-89
2023/07/29 06:27:22;;;;;;;8.50;4.00;;;;;;;;;;5001565;28;20048;-90
2023/07/29 06:29:48;;;;;;;10.55;4.28;;;;;;;;;;5033873;28;20501;-88
2023/07/29 06:32:14;;;;;;;6.90;4.80;;;;;;;;;;5033636;28;20045;-89
2023/07/29 06:34:40;;;;;;;5.70;4.05;;;;;;;;;;5003332;28;20049;-90
2023/07/29 06:37:06;;;;;;;7.72;4.20;;;;;;;;;;5037519;28;20041;-89
2023/07/29 06:39:32;;;;;;;5.88;3.80;;;;;;;;;;5004978;28;20044;-88
2023/07/29 06:41:58;;;;;;;10.35;3.97;;;;;;;;;;5037329;28;20052;-88
2023/07/29 06:44:25;;;;;;;9.07;4.28;;;;;;;;;;5021191;28;20045;-89
2023/07/29 06:46:51;;;;;;;7.68;3.53;;;;;;;;;;5037423;28;20049;-89
2023/07/29 06:49:17;;;;;;;6.00;3.83;;;;;;;;;;5005026;28;20390;-89
2023/07/29 06:51:45;;;;;;;11.93;4.50;;;;;;;;;;5038172;28;20103;-89
2023/07/29 06:54:11;;;;;;;7.68;4.22;;;;;;;;;;5037026;28;20052;-85
2023/07/29 06:56:38;;;;;;;5.15;3.65;;;;;;;;;;5037090;28;20045;-88
2023/07/29 06:59:04;;;;;;;13.02;3.90;;;;;;;;;;5004298;28;20051;-85
2023/07/29 07:01:30;;;;;;;5.65;3.83;;;;;;;;;;5004040;28;20037;-84
2023/07/29 07:03:58;;;;;;;5.40;3.40;;;;;;;;;;5004482;28;20063;-86
2023/07/29 07:06:24;;;;;;;8.40;4.10;;;;;;;;;;5004447;28;20044;-86
2023/07/29 07:08:51;;;;;;;5.35;3.60;;;18.40;69.20;;;;;;5037211;28;20093;-87
2023/07/29 07:11:19;;;;;;;7.38;3.45;;;18.30;69.60;;;;;;5005491;28;20037;-88
2023/07/29 07:13:45;;;;;;;6.43;3.10;;;;;;;;;;5053926;28;20576;-85
2023/07/29 07:16:11;;;;;;;8.07;3.85;;;;;;;;;;5037367;28;20049;-84
2023/07/29 07:18:37;;;;;;;6.78;4.18;;;;;;;;;;5036716;28;20077;-85
2023/07/29 07:21:03;;;;;;;7.28;4.45;;;;;;;;;;5036629;28;20587;-85
2023/07/29 07:23:29;;;;;;;6.30;3.50;;;;;;;;;;5037164;28;20064;-86
2023/07/29 07:25:55;;;;;;;6.03;3.35;;;;;;;;;;5003736;28;20045;-84
2023/07/29 07:28:21;;;;;;;11.10;3.70;;;18.30;71.50;;;;;;5003850;28;20045;-85
2023/07/29 07:30:47;;;;;;;8.70;4.10;;;;;;;;;;5003606;28;20044;-85
2023/07/29 07:33:13;;;;;;;6.65;3.83;;;;;;;;;;5003516;28;20053;-85
2023/07/29 07:35:39;;;;;;;7.80;3.85;;;;;;;;;;5036837;28;20064;-87
2023/07/29 07:38:07;;;;;;;5.85;3.55;;;;;;;;;;5036715;28;20127;-87
2023/07/29 07:40:33;;;;;;;8.90;3.75;;;18.60;66.80;;;;;;5031977;28;20413;-87
2023/07/29 07:42:59;;;;;;;7.05;3.20;;;;;;;;;;5015627;28;20045;-86
2023/07/29 07:45:25;;;;;;;5.50;3.35;;;;;;;;;;4999090;28;20057;-87
2023/07/29 07:47:54;;;;;;;6.97;4.75;;;18.70;63.70;;;;;;4999976;28;20038;-87
2023/07/29 07:50:20;;;;;;;6.30;3.50;;;;;;;;;;4999921;28;20045;-87
2023/07/29 07:52:46;;;;;;;6.53;4.18;;;;;;;;;;5016210;28;20038;-87
2023/07/29 07:55:12;;;;;;;11.68;3.22;;;;;;;;;;4999674;28;20081;-86
2023/07/29 07:57:39;;;;;;;7.25;3.00;;;;;;;;;;5000222;28;20042;-86
2023/07/29 08:00:05;;;;;;;6.25;3.13;;;19.10;65.90;;;;;;5016320;28;20049;-86
2023/07/29 08:02:31;;;;;;;7.90;2.72;;;;;;;;;;5015871;28;20049;-85
2023/07/29 08:04:58;;;;;;;7.07;3.08;;;;;;;;;;5015997;28;20041;-85
2023/07/29 08:07:24;;;;;;;4.22;2.65;;;;;;;;;;5000308;28;20038;-85
2023/07/29 08:09:50;;;;;;;9.73;3.17;;;;;;;;;;5001454;28;20053;-85
2023/07/29 08:12:16;;;;;;;8.60;2.85;;;19.50;59.20;;;;;;5021625;28;20534;-84
2023/07/29 08:14:42;;;;;;;8.38;2.40;;;;;;;;;;5009877;28;20073;-83
2023/07/29 08:17:09;;;;;;;7.13;2.95;;;;;;;;;;5016515;28;20045;-85
2023/07/29 08:19:35;;;;;;;6.78;2.75;;;;;;;;;;5002244;28;20039;-84
2023/07/29 08:22:03;;;;;;;9.30;2.30;;;19.60;57.20;;;;;;5002651;28;20041;-85
2023/07/29 08:24:29;;;;;;;6.63;2.45;;;;;;;;;;5052201;28;20481;-85
2023/07/29 08:26:55;;;;;;;4.88;2.70;;;;;;;;;;5035573;28;20049;-85
2023/07/29 08:29:21;;;;;;;7.43;3.00;;;;;;;;;;5002615;28;20152;-86
2023/07/29 08:31:51;;;;;;;3.72;2.05;;;;;;;;;;5002428;28;20057;-85
2023/07/29 08:34:17;;;;;;;4.35;2.28;;;19.80;57.80;;;;;;5003480;28;20564;-86
2023/07/29 08:36:43;;;;;;;4.55;2.25;;;;;;;;;;5019044;28;20041;-84
2023/07/29 08:39:10;;;;;;;5.00;2.25;;;;;;;;;;5018537;28;20045;-85
2023/07/29 08:41:45;;;;;;;6.30;2.40;;;19.90;53.00;;;;;;5018295;28;20048;-86
2023/07/29 08:44:26;;;;;;;2.42;1.90;;;20.10;51.40;;;;;;5033459;28;20045;-87
2023/07/29 08:46:53;;;;;;;5.07;2.72;;;;;;;;;;5014768;28;20052;-88
2023/07/29 08:49:20;;;;;;;4.57;2.17;;;;;;;;;;5003531;28;20036;-87
2023/07/29 08:51:50;;;;;;;5.13;2.50;;;20.20;49.00;;;;;;5018384;28;20048;-86
2023/07/29 08:54:16;;;;;;;3.35;2.00;;;;;;;;;;5051663;28;20045;-87
2023/07/29 08:56:43;;;;;;;5.85;2.47;;;20.20;47.70;;;;;;5035124;28;20123;-87
2023/07/29 08:59:10;;;;;;;4.05;1.90;;;20.10;47.20;;;;;;5002280;28;20049;-85
2023/07/29 09:01:36;;;;;;;2.47;2.15;;;;;;;;;;5017864;28;20095;-88
2023/07/29 09:04:03;;;;;;;5.30;2.45;;;;;;;;;;5018253;28;20047;-85
2023/07/29 09:06:29;;;;;;;7.25;2.35;;;;;;;;;;5018693;28;20048;-85
2023/07/29 09:08:58;;;;;;;3.63;2.05;;;;;;;;;;5034905;28;20045;-86
2023/07/29 09:11:24;;;;;;;5.05;2.15;;;;;;;;;;5035393;28;20091;-85
2023/07/29 09:13:50;;;;;;;2.83;2.05;;;;;;;;;;5052150;28;20037;-87
2023/07/29 09:16:16;;;;;;;3.28;2.00;;;;;;;;;;4998375;28;20045;-87
2023/07/29 09:18:43;;;;;;;6.57;1.92;;;;;;;;;;5032786;28;20103;-84
2023/07/29 09:21:09;;;;;;;3.53;2.35;;;;;;;;;;5029127;28;20040;-86
2023/07/29 09:23:42;;;;;;;2.53;1.63;;;20.40;43.60;;;;;;5051897;28;20049;-86
2023/07/29 09:26:08;;;;;;;2.45;1.95;;;;;;;;;;5051406;28;20045;-85
2023/07/29 09:28:36;;;;;;;5.32;1.95;;;20.50;45.10;;;;;;5034426;28;20048;-87
2023/07/29 09:31:03;;;;;;;4.97;1.88;;;20.30;44.20;;;;;;5048709;28;20588;-87
2023/07/29 09:33:31;;;;;;;6.40;1.70;;;;;;;;;;5051243;28;20039;-86
2023/07/29 09:35:57;;;;;;;3.55;1.92;;;;;;;;;;5018657;28;20045;-85
2023/07/29 09:38:27;;;;;;;3.60;2.22;;;20.60;44.10;;;;;;5019918;28;20076;-86
2023/07/29 09:41:00;;;;;;;6.10;2.13;;;20.60;42.00;;;;;;5052677;28;20061;-86
2023/07/29 09:43:30;;;;;;;2.35;1.73;;;20.70;43.40;;;;;;5035936;28;20047;-85
2023/07/29 09:46:00;;;;;;;5.15;2.00;;;20.60;43.50;;;;;;5052848;28;20059;-87
2023/07/29 09:48:28;;;;;;;4.68;2.05;;;;;;;;;;5048021;28;20490;-84
2023/07/29 09:50:57;;;;;;;2.83;1.60;;;20.70;40.20;;;;;;5037369;28;20045;-83
2023/07/29 09:53:23;;;;;;;5.03;1.88;;;;;;;;;;5033951;28;20051;-84
2023/07/29 09:55:50;;;;;;;5.07;2.05;;;;;;;;;;5004111;28;20148;-84
2023/07/29 09:58:26;;;;;;;4.38;1.98;;;21.20;41.50;;;;;;5034095;28;20041;-84
2023/07/29 10:00:52;;;;;;;4.30;2.20;;;;;;;;;;5001485;28;20102;-82
2023/07/29 10:03:22;;;;;;;3.65;2.05;;;21.10;39.50;;;;;;5049375;28;20045;-84
2023/07/29 10:05:49;;;;;;;3.83;1.90;;;;;;;;;;5032044;28;20041;-84
2023/07/29 10:08:16;;;;;;;3.17;1.67;;;21.10;39.70;;;;;;5002472;28;20063;-82
2023/07/29 10:10:43;;;;;;;8.68;2.05;;;;;;;;;;5053811;28;20072;-82
2023/07/29 10:13:10;;;;;;;3.97;1.55;;;21.50;40.20;;;;;;5037515;28;20209;-84
2023/07/29 10:15:36;;;;;;;1.88;1.50;;;;;;;;;;5020492;28;20060;-84
2023/07/29 10:18:05;;;;;;;2.40;1.60;;;21.30;38.90;;;;;;5053717;28;20128;-86
2023/07/29 10:20:33;;;;;;;1.70;1.50;;;21.50;39.20;;;;;;5038600;28;20049;-84
2023/07/29 10:23:06;;;;;;;4.35;1.60;;;21.60;37.60;;;;;;5003984;28;20072;-85
2023/07/29 10:25:42;;;;;;;2.80;1.85;;;21.60;37.30;;;;;;5054328;28;20082;-84
2023/07/29 10:28:12;;;;;;;5.28;2.10;;;21.90;39.20;;;;;;5054794;28;20123;-85
2023/07/29 10:30:39;;;;;;;2.80;1.80;;;21.80;36.10;;;;;;5035040;28;20044;-85
2023/07/29 10:33:06;;;;;;;6.20;1.67;;;22.10;35.80;;;;;;5055780;28;20051;-85
2023/07/29 10:35:38;;;;;;;5.90;2.40;;;21.80;33.80;;;;;;5020349;28;20051;-83
2023/07/29 10:38:04;;;;;;;3.47;1.63;;;21.50;37.40;;;;;;5024889;28;20063;-86
2023/07/29 10:40:50;;;;;;;4.18;2.30;;;22.10;37.80;;;;;;5053725;28;20049;-85
2023/07/29 10:43:32;;;;;;;2.30;1.55;;;21.80;35.00;;;;;;5054534;28;20055;-84
2023/07/29 10:46:18;;;;;;;2.95;1.60;;;21.70;36.20;;;;;;5020184;28;20251;-85
2023/07/29 10:48:55;;;;;;;3.08;1.48;;;21.60;36.60;;;;;;5036295;28;20037;-84
2023/07/29 10:51:32;;;;;;;2.15;1.63;;;21.60;35.50;;;;;;5019804;28;20056;-85
2023/07/29 10:54:11;;;;;;;5.47;2.05;;;21.50;35.40;;;;;;5054552;28;20025;-84
2023/07/29 10:56:43;;;;;;;6.15;2.15;;;21.50;37.40;;;;;;5028338;28;20109;-83
2023/07/29 10:59:12;;;;;;;4.53;2.13;;;21.20;39.80;;;;;;5019539;28;20048;-85
2023/07/29 11:01:39;;;;;;;2.83;2.05;;;21.20;38.20;;;;;;5053731;28;20124;-84
2023/07/29 11:04:23;;;;;;;11.98;2.30;;;21.20;38.20;;;;;;5020122;28;20132;-86
2023/07/29 11:07:07;;;;;;;4.85;1.88;;;20.90;40.80;;;;;;5050289;28;20049;-89
2023/07/29 11:09:51;;;;;;;5.53;1.90;;;20.90;45.70;;;;;;5029147;28;20041;-89
2023/07/29 11:12:46;;;;;;;;;;;20.20;44.90;;;;;;5049098;28;20085;-91
2023/07/29 11:16:08;;;;;;;4.88;1.90;;;20.40;48.10;;;;;;5032577;28;19958;-91
2023/07/29 11:40:24;;;;;;;;;;;;;;;;;;;;;
2023/07/29 11:43:08;;;;;;;8.23;2.38;;;;;;;;;;4910522;29;20405;-94
2023/07/29 11:52:34;;;;;;;5.97;2.53;;;;;;;;;;4839306;29;21258;-93
2023/07/29 11:55:02;;;;;;;2.63;2.40;;;20.50;52.70;;;;;;4880744;28;20093;-93
2023/07/29 11:57:38;;;;;;;5.95;2.95;;;20.40;53.20;;;;;;4933449;28;20043;-91
2023/07/29 12:00:09;;;;;;;9.77;2.97;;;20.50;52.80;;;;;;4963383;28;20447;-95
2023/07/29 12:02:40;;;;;;;1.92;1.83;;;20.50;49.70;;;;;;4950885;28;20042;-94
2023/07/29 12:05:11;;;;;;;4.00;1.70;;;20.40;51.80;;;;;;4923904;28;20046;-94
2023/07/29 12:07:39;;;;;;;3.22;1.55;;;20.20;50.90;;;;;;4955475;28;20046;-93
2023/07/29 12:10:06;;;;;;;5.20;1.85;;;;;;;;;;4926611;29;20055;-92
2023/07/29 12:12:32;;;;;;;2.45;1.83;;;;;;;;;;4971102;23;20113;-88
2023/07/29 12:14:58;;;;;;;2.42;1.55;;;;;;;;;;5051378;28;20051;-89
2023/07/29 12:17:25;;;;;;;2.28;1.70;;;;;;;;;;5036739;28;20093;-87
2023/07/29 12:19:55;;;;;;;3.35;1.83;;;19.80;52.40;;;;;;5052411;28;20032;-90
2023/07/29 12:31:01;;;;;;;6.03;2.53;;;;;;;;;;4966804;28;20943;-93
2023/07/29 12:33:52;;;;;;;;;;;;;;;;;;;;;
2023/07/29 12:36:50;;;;;;;4.28;2.35;;;20.50;51.50;;;;;;4989916;28;20410;-94
2023/07/29 12:39:33;;;;;;;3.80;1.88;;;20.50;49.60;;;;;;4973827;28;20045;-93
2023/07/29 12:42:01;;;;;;;5.00;2.40;;;20.50;50.60;;;;;;4972588;28;20041;-93
2023/07/29 12:44:34;;;;;;;5.72;2.08;;;20.20;50.30;;;;;;4986458;28;20061;-94
2023/07/29 12:47:08;;;;;;;2.53;1.88;;;20.30;46.30;;;;;;4971727;28;20175;-93
2023/07/29 12:49:37;;;;;;;2.22;1.67;;;;;;;;;;4956083;28;20058;-94
2023/07/29 12:52:03;;;;;;;6.75;2.05;;;;;;;;;;4971755;28;20054;-93
2023/07/29 12:54:29;;;;;;;2.55;1.70;;;;;;;;;;4987869;28;20395;-89
2023/07/29 12:56:56;;;;;;;3.35;1.48;;;;;;;;;;4971167;28;20046;-93
2023/07/29 12:59:22;;;;;;;2.85;2.22;;;;;;;;;;4969914;28;20054;-91
2023/07/29 13:01:51;;;;;;;2.85;1.80;;;20.20;45.00;;;;;;4966994;28;20560;-90
2023/07/29 13:04:20;;;;;;;2.40;1.98;;;;;;;;;;4970356;28;20101;-92
2023/07/29 13:06:46;;;;;;;2.47;1.70;;;;;;;;;;4970624;28;20125;-92
2023/07/29 13:09:12;;;;;;;3.03;2.05;;;;;;;;;;4988365;28;20041;-92
2023/07/29 13:11:38;;;;;;;8.63;2.10;;;;;;;;;;4983914;28;20417;-92
2023/07/29 13:14:05;;;;;;;5.05;2.17;;;;;;;;;;4999659;28;20073;-91
2023/07/29 13:16:33;;;;;;;3.35;1.70;;;;;;;;;;4999135;28;20487;-92
2023/07/29 13:18:59;;;;;;;5.20;2.42;;;;;;;;;;4980691;28;20049;-89
2023/07/29 13:21:26;;;;;;;4.35;2.22;;;;;;;;;;4982072;28;20103;-91
2023/07/29 13:23:52;;;;;;;1.77;1.63;;;;;;;;;;4999494;28;20053;-92
2023/07/29 13:26:22;;;;;;;5.53;2.38;;;;;;;;;;4996492;28;20052;-91
2023/07/29 13:28:50;;;;;;;4.88;1.83;;;20.80;39.60;;;;;;5015479;28;20584;-92
2023/07/29 13:31:16;;;;;;;4.05;1.80;;;;;;;;;;4967419;28;20045;-93
2023/07/29 13:33:42;;;;;;;4.80;2.17;;;;;;;;;;4996749;28;20046;-90
2023/07/29 13:36:08;;;;;;;4.38;1.92;;;;;;;;;;4981378;28;20058;-91
2023/07/29 13:38:39;;;;;;;7.80;2.25;;;21.30;37.40;;;;;;4983857;28;20100;-90
2023/07/29 13:41:05;;;;;;;3.63;1.95;;;;;;;;;;4977310;28;20037;-90
2023/07/29 13:43:35;;;;;;;3.97;2.75;;;;;;;;;;4995665;28;20056;-91
2023/07/29 13:46:01;;;;;;;3.83;2.05;;;;;;;;;;4998870;28;20500;-91
2023/07/29 13:48:27;;;;;;;2.08;1.88;;;;;;;;;;5014753;28;20127;-91
2023/07/29 13:50:53;;;;;;;3.45;1.90;;;;;;;;;;4995693;28;20052;-87
2023/07/29 13:53:19;;;;;;;6.10;1.88;;;;;;;;;;4994983;28;20507;-86
2023/07/29 13:55:46;;;;;;;2.67;2.22;;;;;;;;;;4979258;28;20065;-86
2023/07/29 13:58:12;;;;;;;5.65;1.80;;;;;;;;;;4994623;28;20041;-87
2023/07/29 14:00:38;;;;;;;4.55;1.98;;;;;;;;;;4997282;28;20038;-87
2023/07/29 14:03:04;;;;;;;3.42;1.80;;;;;;;;;;4979634;28;20107;-87
2023/07/29 14:05:30;;;;;;;3.65;2.03;;;;;;;;;;4991788;28;20085;-87
2023/07/29 14:07:56;;;;;;;7.30;2.17;;;;;;;;;;4975855;28;21080;-87
2023/07/29 14:10:22;;;;;;;3.55;1.95;;;22.40;28.90;;;;;;4992007;28;20050;-88
2023/07/29 14:12:48;;;;;;;6.05;2.08;;;22.30;27.40;;;;;;4994825;28;20048;-86
2023/07/29 14:15:14;;;;;;;5.40;2.20;;;;;;;;;;4957191;28;20510;-88
2023/07/29 14:17:40;;;;;;;6.18;2.28;;;;;;;;;;4981086;28;20033;-87
2023/07/29 14:20:06;;;;;;;5.32;2.28;;;22.50;26.10;;;;;;4957280;28;20065;-88
2023/07/29 14:22:32;;;;;;;4.93;2.67;;;;;;;;;;4961905;28;20060;-87
2023/07/29 14:24:58;;;;;;;4.57;1.85;;;22.30;26.50;;;;;;5007594;28;20038;-87
2023/07/29 14:27:24;;;;;;;4.80;1.98;;;;;;;;;;4981965;28;20099;-87
2023/07/29 14:29:51;;;;;;;4.32;2.08;;;;;;;;;;5012241;28;20671;-87
2023/07/29 14:32:17;;;;;;;4.35;2.33;;;;;;;;;;4981635;28;20274;-87
2023/07/29 14:34:43;;;;;;;4.55;1.95;;;;;;;;;;4978088;28;20521;-86
2023/07/29 14:37:09;;;;;;;2.72;1.77;;;;;;;;;;4975641;28;20038;-86
2023/07/29 14:39:35;;;;;;;4.53;2.33;;;;;;;;;;4999962;28;20048;-88
2023/07/29 14:42:01;;;;;;;3.33;2.05;;;22.30;23.20;;;;;;4999012;28;21343;-86
2023/07/29 14:44:27;;;;;;;5.70;2.40;;;;;;;;;;4997236;28;20050;-86
2023/07/29 14:46:54;;;;;;;6.32;2.67;;;;;;;;;;4978243;28;20046;-88